Time;durP1;ratioP1;P1;durP2;ratioP2;P2;SDS_P1;SDS_P2;PMS_P1;PMS_P2;Temp;Humidity;BMP_temperature;BMP_pressure;BME280_temperature;BME280_humidity;BME280_pressure;Samples;Min_cycle;Max_cycle;Signal;HPM_P1;HPM_P2
2020/12/26 00:02:12;;;;;;;;;;;9.10;60.10;;;;;;5093404;28;20019;-76
2020/12/26 00:04:38;;;;;;;;;;;9.10;61.50;;;;;;5093221;28;20015;-76
2020/12/26 00:07:05;;;;;;;;;;;8.90;60.90;;;;;;5094002;28;19936;-76
2020/12/26 00:09:32;;;;;;;;;;;8.80;60.90;;;;;;5093300;28;20534;-76
2020/12/26 00:11:58;;;;;;;;;;;8.90;64.30;;;;;;5093381;28;19955;-76
2020/12/26 00:14:27;;;;;;;;;;;9.00;61.80;;;;;;5093296;28;20434;-75
2020/12/26 00:16:54;;;;;;;;;;;9.00;60.50;;;;;;5092926;28;19924;-75
2020/12/26 00:19:21;;;;;;;;;;;8.90;60.70;;;;;;5093285;28;19935;-74
2020/12/26 00:21:47;;;;;;;;;;;8.90;63.20;;;;;;5093266;28;19924;-74
2020/12/26 00:24:13;;;;;;;;;;;8.70;60.70;;;;;;5093000;28;19924;-74
2020/12/26 00:26:40;;;;;;;;;;;8.60;61.50;;;;;;5102653;28;19931;-74
2020/12/26 00:29:06;;;;;;;;;;;8.50;63.40;;;;;;5094067;28;19924;-74
2020/12/26 00:31:32;;;;;;;;;;;8.60;63.90;;;;;;5112695;28;20456;-74
2020/12/26 00:33:59;;;;;;;;;;;8.80;63.40;;;;;;5092330;28;19924;-75
2020/12/26 00:36:25;;;;;;;;;;;8.90;62.20;;;;;;5108422;28;19924;-74
2020/12/26 00:38:51;;;;;;;;;;;9.30;62.60;;;;;;5111951;28;20407;-76
2020/12/26 00:41:18;;;;;;;;;;;9.30;60.70;;;;;;5105665;28;20412;-76
2020/12/26 00:43:44;;;;;;;;;;;9.20;60.00;;;;;;5092436;28;19931;-74
2020/12/26 00:46:11;;;;;;;;;;;9.20;60.30;;;;;;5074766;28;19984;-77
2020/12/26 00:48:38;;;;;;;;;;;9.10;59.90;;;;;;5092281;28;19935;-76
2020/12/26 00:51:05;;;;;;;;;;;9.00;60.90;;;;;;5074002;28;19924;-74
2020/12/26 00:53:31;;;;;;;;;;;8.90;61.80;;;;;;5092423;28;19924;-73
2020/12/26 00:55:58;;;;;;;;;;;9.10;63.00;;;;;;5092258;28;20001;-74
2020/12/26 00:58:24;;;;;;;;;;;9.20;62.00;;;;;;5092131;28;19977;-74
2020/12/26 01:00:50;;;;;;;;;;;9.10;60.70;;;;;;5091751;28;20392;-74
2020/12/26 01:03:17;;;;;;;;;;;9.30;62.10;;;;;;5092101;28;19924;-74
2020/12/26 01:05:43;;;;;;;;;;;9.50;61.40;;;;;;5092224;28;19970;-74
2020/12/26 01:08:09;;;;;;;;;;;9.60;60.50;;;;;;5092021;28;19928;-77
2020/12/26 01:10:36;;;;;;;;;;;9.70;60.30;;;;;;5092127;28;19924;-74
2020/12/26 01:13:02;;;;;;;;;;;9.80;59.80;;;;;;5073975;28;19924;-74
2020/12/26 01:15:28;;;;;;;;;;;9.80;60.30;;;;;;5093675;28;19924;-74
2020/12/26 01:17:55;;;;;;;;;;;9.90;57.30;;;;;;5112068;28;20395;-74
2020/12/26 01:20:21;;;;;;;;;;;9.80;58.50;;;;;;5112093;28;19962;-74
2020/12/26 01:22:48;;;;;;;;;;;9.60;59.40;;;;;;5112020;28;20344;-74
2020/12/26 01:25:14;;;;;;;;;;;9.40;57.90;;;;;;5112210;28;19927;-74
2020/12/26 01:27:40;;;;;;;;;;;9.30;60.10;;;;;;5093807;28;19928;-75
2020/12/26 01:30:07;;;;;;;;;;;9.50;60.00;;;;;;5073690;28;19924;-74
2020/12/26 01:32:33;;;;;;;;;;;9.50;58.50;;;;;;5096591;28;19934;-74
2020/12/26 01:35:00;;;;;;;;;;;9.40;60.20;;;;;;5073511;28;20035;-74
2020/12/26 01:37:27;;;;;;;;;;;9.60;61.50;;;;;;5099241;28;19950;-74
2020/12/26 01:39:54;;;;;;;;;;;9.80;59.30;;;;;;5111716;28;19923;-74
2020/12/26 01:42:20;;;;;;;;;;;9.60;59.00;;;;;;5095689;28;19924;-74
2020/12/26 01:44:46;;;;;;;;;;;9.60;59.70;;;;;;5091290;28;19924;-74
2020/12/26 01:47:13;;;;;;;;;;;9.70;60.00;;;;;;5091572;28;19958;-73
2020/12/26 01:49:40;;;;;;;;;;;9.70;57.50;;;;;;5091203;28;19924;-74
2020/12/26 01:52:10;;;;;;;;;;;9.50;58.80;;;;;;5091235;28;19927;-74
2020/12/26 01:54:37;;;;;;;;;;;9.70;61.30;;;;;;5091041;28;19931;-74
2020/12/26 01:57:03;;;;;;;;;;;9.80;59.00;;;;;;5091052;28;19924;-76
2020/12/26 01:59:30;;;;;;;;;;;9.80;57.30;;;;;;5091212;28;19924;-76
2020/12/26 02:01:59;;;;;;;;;;;9.50;60.30;;;;;;5091382;28;19924;-74
2020/12/26 02:04:25;;;;;;;;;;;9.70;59.70;;;;;;5091176;28;19931;-74
2020/12/26 02:06:57;;;;;;;;;;;9.50;58.00;;;;;;5090981;28;20011;-75
2020/12/26 02:09:24;;;;;;;;;;;9.10;59.30;;;;;;5090901;28;20313;-74
2020/12/26 02:11:50;;;;;;;;;;;9.40;60.50;;;;;;5072940;28;20011;-74
2020/12/26 02:14:17;;;;;;;;;;;9.50;60.60;;;;;;5072703;28;19931;-74
2020/12/26 02:16:43;;;;;;;;;;;9.50;59.00;;;;;;5090925;28;20411;-74
2020/12/26 02:19:10;;;;;;;;;;;9.30;58.60;;;;;;5072906;28;19931;-74
2020/12/26 02:21:37;;;;;;;;;;;9.40;59.80;;;;;;5090931;28;19924;-75
2020/12/26 02:24:03;;;;;;;;;;;9.40;58.80;;;;;;5090782;28;19928;-74
2020/12/26 02:26:29;;;;;;;;;;;9.00;59.70;;;;;;5098471;28;19930;-74
2020/12/26 02:28:56;;;;;;;;;;;9.00;60.00;;;;;;5111223;28;19924;-74
2020/12/26 02:31:22;;;;;;;;;;;9.00;62.80;;;;;;5110904;28;19924;-74
2020/12/26 02:33:49;;;;;;;;;;;8.90;61.10;;;;;;5091424;28;20026;-74
2020/12/26 02:36:15;;;;;;;;;;;8.90;60.90;;;;;;5090471;28;19924;-74
2020/12/26 02:38:42;;;;;;;;;;;8.90;60.80;;;;;;5108541;28;19923;-74
2020/12/26 02:41:08;;;;;;;;;;;9.00;60.80;;;;;;5105043;28;20009;-74
2020/12/26 02:43:35;;;;;;;;;;;9.00;60.60;;;;;;5090390;28;19924;-74
2020/12/26 02:46:02;;;;;;;;;;;9.00;60.60;;;;;;5072405;28;20090;-74
2020/12/26 02:48:30;;;;;;;;;;;9.00;59.50;;;;;;5090218;28;20293;-74
2020/12/26 02:50:57;;;;;;;;;;;9.10;60.40;;;;;;5072170;28;19924;-74
2020/12/26 02:53:23;;;;;;;;;;;9.20;59.90;;;;;;5089758;28;19946;-75
2020/12/26 02:55:50;;;;;;;;;;;9.10;60.20;;;;;;5090048;28;19955;-75
2020/12/26 02:58:16;;;;;;;;;;;9.30;61.10;;;;;;5090414;28;19924;-74
2020/12/26 03:00:43;;;;;;;;;;;9.30;60.20;;;;;;5090300;28;19924;-74
2020/12/26 03:03:09;;;;;;;;;;;9.60;60.90;;;;;;5072528;28;19924;-74
2020/12/26 03:05:39;;;;;;;;;;;9.50;59.30;;;;;;5072697;28;19977;-76
2020/12/26 03:08:05;;;;;;;;;;;9.10;59.00;;;;;;5072091;28;19985;-73
2020/12/26 03:10:32;;;;;;;;;;;9.00;61.00;;;;;;5072218;28;19932;-74
2020/12/26 03:12:58;;;;;;;;;;;8.90;59.80;;;;;;5090241;28;19924;-74
2020/12/26 03:15:26;;;;;;;;;;;8.80;59.60;;;;;;5072068;28;19924;-74
2020/12/26 03:17:52;;;;;;;;;;;8.50;61.50;;;;;;5090123;28;19924;-74
2020/12/26 03:20:18;;;;;;;;;;;8.70;63.60;;;;;;5090211;28;20331;-74
2020/12/26 03:22:44;;;;;;;;;;;9.10;61.70;;;;;;5090337;28;19924;-74
2020/12/26 03:25:12;;;;;;;;;;;8.90;60.90;;;;;;5072378;28;19924;-74
2020/12/26 03:27:38;;;;;;;;;;;8.90;60.20;;;;;;5107795;28;19930;-74
2020/12/26 03:30:05;;;;;;;;;;;9.00;61.70;;;;;;5110240;28;19931;-75
2020/12/26 03:32:32;;;;;;;;;;;8.80;59.60;;;;;;5101901;28;20059;-74
2020/12/26 03:34:58;;;;;;;;;;;8.40;61.10;;;;;;5089864;28;19976;-74
2020/12/26 03:37:25;;;;;;;;;;;8.50;64.20;;;;;;5097228;28;19946;-74
2020/12/26 03:39:51;;;;;;;;;;;8.70;61.70;;;;;;5110309;28;20264;-74
2020/12/26 03:42:18;;;;;;;;;;;8.60;60.50;;;;;;5094589;28;19925;-74
2020/12/26 03:44:44;;;;;;;;;;;8.80;62.00;;;;;;5071945;28;20287;-74
2020/12/26 03:47:10;;;;;;;;;;;8.80;62.70;;;;;;5071823;28;19931;-74
2020/12/26 03:49:37;;;;;;;;;;;9.10;60.30;;;;;;5089707;28;20107;-74
2020/12/26 03:52:04;;;;;;;;;;;9.10;60.20;;;;;;5089652;28;19924;-74
2020/12/26 03:54:31;;;;;;;;;;;9.30;59.80;;;;;;5089744;28;19987;-75
2020/12/26 03:56:57;;;;;;;;;;;9.00;58.70;;;;;;5071812;28;19931;-74
2020/12/26 03:59:24;;;;;;;;;;;8.80;59.40;;;;;;5089533;28;20414;-75
2020/12/26 04:01:51;;;;;;;;;;;8.60;62.00;;;;;;5089506;28;19928;-74
2020/12/26 04:04:17;;;;;;;;;;;8.90;61.30;;;;;;5091189;28;19924;-74
2020/12/26 04:06:44;;;;;;;;;;;8.90;62.70;;;;;;5093211;28;19931;-74
2020/12/26 04:09:11;;;;;;;;;;;9.20;61.40;;;;;;5093180;28;19928;-74
2020/12/26 04:11:37;;;;;;;;;;;9.30;62.30;;;;;;5093304;28;20014;-75
2020/12/26 04:14:04;;;;;;;;;;;9.50;59.20;;;;;;5093492;28;20274;-76
2020/12/26 04:16:30;;;;;;;;;;;9.50;58.20;;;;;;5085671;28;19927;-74
2020/12/26 04:18:58;;;;;;;;;;;9.60;60.80;;;;;;5113533;28;19924;-73
2020/12/26 04:21:25;;;;;;;;;;;9.70;58.70;;;;;;5095552;28;19930;-74
2020/12/26 04:23:51;;;;;;;;;;;9.60;58.30;;;;;;5113459;28;19927;-75
2020/12/26 04:26:18;;;;;;;;;;;9.20;59.40;;;;;;5107101;28;20152;-74
2020/12/26 04:28:44;;;;;;;;;;;9.20;60.10;;;;;;5092995;28;19931;-75
2020/12/26 04:31:11;;;;;;;;;;;8.80;61.20;;;;;;5092624;28;20376;-74
2020/12/26 04:33:37;;;;;;;;;;;8.70;60.90;;;;;;5097965;28;19964;-74
2020/12/26 04:36:04;;;;;;;;;;;8.60;62.70;;;;;;5092799;28;19946;-74
2020/12/26 04:38:31;;;;;;;;;;;8.80;60.50;;;;;;5109013;28;20414;-74
2020/12/26 04:40:57;;;;;;;;;;;9.00;60.80;;;;;;5108912;28;19924;-74
2020/12/26 04:43:24;;;;;;;;;;;8.90;61.60;;;;;;5092444;28;20463;-74
2020/12/26 04:45:53;;;;;;;;;;;8.80;60.30;;;;;;5093063;28;19966;-75
2020/12/26 04:48:21;;;;;;;;;;;8.70;59.80;;;;;;5092314;28;19924;-74
2020/12/26 04:50:48;;;;;;;;;;;8.50;60.20;;;;;;5092185;28;20426;-75
2020/12/26 04:53:16;;;;;;;;;;;8.30;62.20;;;;;;5092600;28;19924;-75
2020/12/26 04:55:47;;;;;;;;;;;8.40;61.70;;;;;;5092540;28;19924;-77
2020/12/26 04:58:13;;;;;;;;;;;8.40;61.30;;;;;;5092267;28;19924;-76
2020/12/26 05:00:40;;;;;;;;;;;8.10;62.20;;;;;;5092029;28;19931;-77
2020/12/26 05:03:07;;;;;;;;;;;8.30;63.30;;;;;;5092483;28;20416;-74
2020/12/26 05:05:34;;;;;;;;;;;8.50;63.60;;;;;;5092367;28;19935;-74
2020/12/26 05:08:08;;;;;;;;;;;8.30;61.50;;;;;;5092342;28;19931;-74
2020/12/26 05:10:34;;;;;;;;;;;8.60;64.10;;;;;;5092128;28;20376;-74
2020/12/26 05:13:02;;;;;;;;;;;8.80;60.60;;;;;;5092165;28;19924;-73
2020/12/26 05:15:28;;;;;;;;;;;8.50;60.90;;;;;;5091225;28;20023;-74
2020/12/26 05:17:55;;;;;;;;;;;8.30;63.40;;;;;;5092485;28;19924;-75
2020/12/26 05:20:22;;;;;;;;;;;8.40;64.10;;;;;;5092041;28;19935;-75
2020/12/26 05:23:05;;;;;;;;;;;8.50;60.30;;;;;;5091958;28;19946;-74
2020/12/26 05:25:32;;;;;;;;;;;8.50;60.90;;;;;;5092066;28;19989;-74
2020/12/26 05:28:09;;;;;;;;;;;8.90;63.90;;;;;;5091696;28;19935;-74
2020/12/26 05:30:37;;;;;;;;;;;9.10;59.50;;;;;;5091900;28;19924;-74
2020/12/26 05:33:07;;;;;;;;;;;9.20;61.10;;;;;;5097005;28;19952;-75
2020/12/26 05:35:37;;;;;;;;;;;9.30;60.90;;;;;;5073560;28;20031;-75
2020/12/26 05:38:14;;;;;;;;;;;9.60;59.60;;;;;;5104433;28;19924;-75
2020/12/26 05:40:41;;;;;;;;;;;9.60;59.60;;;;;;5108601;28;19931;-75
2020/12/26 05:43:09;;;;;;;;;;;9.50;59.20;;;;;;5091675;28;19924;-74
2020/12/26 05:45:39;;;;;;;;;;;9.50;59.50;;;;;;5091627;28;19928;-75
2020/12/26 05:48:06;;;;;;;;;;;9.50;60.40;;;;;;5091457;28;19931;-74
2020/12/26 05:50:33;;;;;;;;;;;9.70;59.50;;;;;;5091339;28;19940;-74
2020/12/26 05:53:01;;;;;;;;;;;10.60;58.30;;;;;;5091402;28;19924;-75
2020/12/26 05:55:35;;;;;;;;;;;9.70;59.80;;;;;;5091267;28;19924;-75
2020/12/26 05:58:02;;;;;;;;;;;10.10;59.60;;;;;;5091192;28;20334;-76
2020/12/26 06:00:35;;;;;;;;;;;10.00;58.50;;;;;;5091526;28;19931;-74
2020/12/26 06:03:20;;;;;;;;;;;10.40;57.50;;;;;;5091337;28;19928;-74
2020/12/26 06:05:47;;;;;;;;;;;10.30;54.90;;;;;;5073027;28;19928;-76
2020/12/26 06:08:14;;;;;;;;;;;10.00;55.90;;;;;;5091178;28;19939;-75
2020/12/26 06:10:41;;;;;;;;;;;10.00;58.60;;;;;;5091195;28;20296;-74
2020/12/26 06:13:08;;;;;;;;;;;10.00;58.10;;;;;;5090918;28;20178;-75
2020/12/26 06:15:36;;;;;;;;;;;9.80;59.10;;;;;;5093502;28;19932;-75
2020/12/26 06:18:11;;;;;;;;;;;9.80;56.70;;;;;;5111390;28;19961;-75
2020/12/26 06:20:37;;;;;;;;;;;9.70;57.30;;;;;;5111366;28;19931;-76
2020/12/26 06:23:09;;;;;;;;;;;9.50;56.80;;;;;;5111328;28;19923;-74
2020/12/26 06:25:36;;;;;;;;;;;9.50;60.20;;;;;;5110778;28;19928;-74
2020/12/26 06:28:05;;;;;;;;;;;9.80;60.00;;;;;;5089754;28;19924;-74
2020/12/26 06:30:31;;;;;;;;;;;9.90;57.00;;;;;;5090857;28;20289;-74
2020/12/26 06:32:57;;;;;;;;;;;9.80;57.80;;;;;;5095716;28;19924;-74
2020/12/26 06:35:24;;;;;;;;;;;10.10;59.10;;;;;;5090677;28;19924;-74
2020/12/26 06:38:13;;;;;;;;;;;10.20;56.00;;;;;;5101414;28;19924;-75
2020/12/26 06:40:49;;;;;;;;;;;9.90;57.00;;;;;;5090778;28;19924;-75
2020/12/26 06:43:35;;;;;;;;;;;9.90;58.20;;;;;;5072499;28;20408;-75
2020/12/26 06:46:01;;;;;;;;;;;10.00;55.30;;;;;;5090627;28;20649;-75
2020/12/26 06:48:33;;;;;;;;;;;9.80;57.20;;;;;;5090133;28;20369;-74
2020/12/26 06:51:19;;;;;;;;;;;9.80;59.20;;;;;;5090503;28;19932;-75
2020/12/26 06:53:45;;;;;;;;;;;10.00;59.00;;;;;;5090178;28;19924;-75
2020/12/26 06:56:31;;;;;;;;;;;10.00;56.40;;;;;;5089978;28;19927;-75
2020/12/26 06:59:00;;;;;;;;;;;10.00;56.40;;;;;;5090086;28;20414;-75
2020/12/26 07:01:28;;;;;;;;;;;9.90;59.20;;;;;;5090602;28;19935;-74
2020/12/26 07:04:06;;;;;;;;;;;9.90;56.30;;;;;;5090121;28;20377;-75
2020/12/26 07:06:37;;;;;;;;;;;9.70;57.60;;;;;;5090119;28;19931;-74
2020/12/26 07:09:04;;;;;;;;;;;10.00;59.00;;;;;;5090621;28;19924;-76
2020/12/26 07:11:30;;;;;;;;;;;9.80;57.50;;;;;;5090089;28;19932;-75
2020/12/26 07:13:57;;;;;;;;;;;9.90;58.30;;;;;;5090060;28;19956;-75
2020/12/26 07:16:42;;;;;;;;;;;10.10;56.90;;;;;;5099831;28;19924;-75
2020/12/26 07:19:21;;;;;;;;;;;10.20;55.50;;;;;;5110535;28;19967;-74
2020/12/26 07:21:51;;;;;;;;;;;10.00;56.20;;;;;;5110390;28;19930;-76
2020/12/26 07:24:38;;;;;;;;;;;9.80;57.00;;;;;;5110400;28;19924;-76
2020/12/26 07:27:15;;;;;;;;;;;9.70;59.00;;;;;;5097167;28;19943;-74
2020/12/26 07:29:53;;;;;;;;;;;9.50;56.30;;;;;;5089857;28;20398;-73
2020/12/26 07:32:35;;;;;;;;;;;9.30;56.90;;;;;;5077230;28;19927;-74
2020/12/26 07:35:02;;;;;;;;;;;9.40;60.30;;;;;;5089987;28;19932;-75
2020/12/26 07:37:28;;;;;;;;;;;9.50;56.80;;;;;;5097800;28;20369;-76
2020/12/26 07:39:55;;;;;;;;;;;9.10;57.20;;;;;;5113256;28;19924;-73
2020/12/26 07:42:22;;;;;;;;;;;9.10;60.70;;;;;;5098578;28;19950;-75
2020/12/26 07:44:49;;;;;;;;;;;9.00;57.70;;;;;;5094066;28;20331;-74
2020/12/26 07:47:15;;;;;;;;;;;8.80;60.20;;;;;;5093670;28;19924;-76
2020/12/26 07:49:41;;;;;;;;;;;8.70;60.50;;;;;;5093624;28;19924;-76
2020/12/26 07:52:09;;;;;;;;;;;8.70;59.90;;;;;;5093584;28;19924;-75
2020/12/26 07:54:36;;;;;;;;;;;8.50;59.70;;;;;;5093761;28;19931;-76
2020/12/26 07:57:02;;;;;;;;;;;8.10;60.60;;;;;;5093643;28;19924;-76
2020/12/26 07:59:29;;;;;;;;;;;7.90;63.70;;;;;;5093739;28;20311;-75
2020/12/26 08:01:56;;;;;;;;;;;7.90;62.20;;;;;;5093551;28;19932;-75
2020/12/26 08:04:23;;;;;;;;;;;8.00;61.80;;;;;;5093764;28;19931;-76
2020/12/26 08:06:50;;;;;;;;;;;7.90;61.90;;;;;;5093753;28;20373;-76
2020/12/26 08:09:17;;;;;;;;;;;7.70;62.40;;;;;;5093600;28;19935;-75
2020/12/26 08:11:44;;;;;;;;;;;7.50;63.70;;;;;;5094059;28;19924;-77
2020/12/26 08:14:10;;;;;;;;;;;7.50;63.40;;;;;;5094176;28;19928;-76
2020/12/26 08:16:37;;;;;;;;;;;7.40;63.70;;;;;;5105536;28;19923;-77
2020/12/26 08:19:04;;;;;;;;;;;7.30;64.20;;;;;;5114637;28;19924;-77
2020/12/26 08:21:33;;;;;;;;;;;7.10;65.30;;;;;;5117197;28;19934;-77
2020/12/26 08:24:04;;;;;;;;;;;7.00;65.30;;;;;;5118632;28;19927;-76
2020/12/26 08:26:31;;;;;;;;;;;6.90;65.30;;;;;;5110206;28;19946;-76
2020/12/26 08:28:59;;;;;;;;;;;7.10;64.80;;;;;;5100140;28;19924;-76
2020/12/26 08:31:27;;;;;;;;;;;7.10;65.30;;;;;;5097724;28;19924;-75
2020/12/26 08:34:01;;;;;;;;;;;7.30;66.10;;;;;;5098213;28;19924;-75
2020/12/26 08:36:31;;;;;;;;;;;7.70;66.30;;;;;;5092959;28;19930;-76
2020/12/26 08:38:59;;;;;;;;;;;7.90;63.60;;;;;;5091553;28;19931;-75
2020/12/26 08:41:25;;;;;;;;;;;8.30;62.90;;;;;;5082534;28;20391;-76
2020/12/26 08:43:52;;;;;;;;;;;8.30;61.50;;;;;;5095062;28;19930;-76
2020/12/26 08:46:20;;;;;;;;;;;8.10;62.30;;;;;;5095249;28;19946;-76
2020/12/26 08:48:47;;;;;;;;;;;8.00;62.40;;;;;;5113008;28;19931;-76
2020/12/26 08:51:18;;;;;;;;;;;7.90;61.90;;;;;;5086157;28;19951;-76
2020/12/26 08:53:45;;;;;;;;;;;7.70;62.60;;;;;;5092748;28;20056;-76
2020/12/26 08:56:11;;;;;;;;;;;8.00;63.70;;;;;;5092613;28;19977;-76
2020/12/26 08:58:38;;;;;;;;;;;8.40;62.40;;;;;;5092531;28;20297;-75
2020/12/26 09:01:05;;;;;;;;;;;8.50;60.70;;;;;;5092566;28;19935;-75
2020/12/26 09:03:32;;;;;;;;;;;8.70;59.80;;;;;;5074544;28;19932;-74
2020/12/26 09:05:59;;;;;;;;;;;8.70;60.40;;;;;;5074431;28;19924;-74
2020/12/26 09:08:27;;;;;;;;;;;8.60;57.60;;;;;;5092375;28;19924;-74
2020/12/26 09:10:57;;;;;;;;;;;8.70;58.10;;;;;;5092515;28;19928;-74
2020/12/26 09:13:31;;;;;;;;;;;8.50;58.40;;;;;;5092372;28;20372;-76
2020/12/26 09:16:01;;;;;;;;;;;8.30;62.30;;;;;;5098188;28;19923;-75
2020/12/26 09:18:28;;;;;;;;;;;8.50;61.90;;;;;;5094512;28;19931;-75
2020/12/26 09:20:54;;;;;;;;;;;8.50;60.50;;;;;;5112599;28;19946;-75
2020/12/26 09:23:21;;;;;;;;;;;8.60;60.60;;;;;;5112585;28;19970;-75
2020/12/26 09:25:48;;;;;;;;;;;8.40;58.90;;;;;;5112539;28;19924;-75
2020/12/26 09:28:14;;;;;;;;;;;8.70;58.60;;;;;;5112611;28;20295;-75
2020/12/26 09:30:41;;;;;;;;;;;8.60;56.20;;;;;;5112493;28;19924;-75
2020/12/26 09:33:08;;;;;;;;;;;8.40;57.40;;;;;;5098502;28;20392;-78
2020/12/26 09:35:34;;;;;;;;;;;8.30;58.30;;;;;;5091570;28;20403;-76
2020/12/26 09:38:01;;;;;;;;;;;8.10;56.90;;;;;;5104351;28;19928;-76
2020/12/26 09:40:31;;;;;;;;;;;8.50;61.70;;;;;;5111825;28;19924;-74
2020/12/26 09:42:58;;;;;;;;;;;8.90;56.90;;;;;;5091790;28;19924;-74
2020/12/26 09:45:24;;;;;;;;;;;8.90;54.30;;;;;;5091735;28;20015;-74
2020/12/26 09:47:51;;;;;;;;;;;8.90;55.80;;;;;;5091726;28;19931;-74
2020/12/26 09:50:17;;;;;;;;;;;8.90;55.90;;;;;;5091455;28;20316;-75
2020/12/26 09:52:43;;;;;;;;;;;9.10;54.90;;;;;;5108346;28;19924;-75
2020/12/26 09:55:25;;;;;;;;;;;9.30;56.60;;;;;;5095731;28;20281;-75
2020/12/26 09:57:51;;;;;;;;;;;9.40;55.70;;;;;;5111736;28;19953;-75
2020/12/26 10:00:18;;;;;;;;;;;9.30;55.70;;;;;;5111786;28;19924;-74
2020/12/26 10:02:44;;;;;;;;;;;9.30;55.00;;;;;;5093338;28;20261;-75
2020/12/26 10:05:10;;;;;;;;;;;9.10;54.70;;;;;;5111636;28;19930;-75
2020/12/26 10:07:36;;;;;;;;;;;8.90;55.00;;;;;;5111675;28;19924;-75
2020/12/26 10:10:03;;;;;;;;;;;8.50;54.70;;;;;;5111455;28;19931;-77
2020/12/26 10:12:29;;;;;;;;;;;8.20;57.60;;;;;;5093485;28;19938;-77
2020/12/26 10:14:55;;;;;;;;;;;8.50;58.30;;;;;;5111446;28;19930;-75
2020/12/26 10:17:22;;;;;;;;;;;8.70;58.10;;;;;;5093256;28;19924;-74
2020/12/26 10:19:48;;;;;;;;;;;8.70;56.40;;;;;;5090875;28;20380;-75
2020/12/26 10:22:14;;;;;;;;;;;8.80;58.60;;;;;;5090617;28;20372;-74
2020/12/26 10:24:41;;;;;;;;;;;8.80;54.60;;;;;;5090687;28;20392;-75
2020/12/26 10:27:07;;;;;;;;;;;8.90;54.60;;;;;;5085760;28;19923;-75
2020/12/26 10:29:34;;;;;;;;;;;8.60;56.10;;;;;;5111210;28;19923;-74
2020/12/26 10:32:00;;;;;;;;;;;8.70;55.50;;;;;;5106845;28;19927;-74
2020/12/26 10:34:26;;;;;;;;;;;8.80;56.10;;;;;;5090213;28;19931;-75
2020/12/26 10:36:53;;;;;;;;;;;8.90;54.70;;;;;;5093248;28;19938;-75
2020/12/26 10:39:19;;;;;;;;;;;8.80;56.20;;;;;;5110714;28;19931;-75
2020/12/26 10:41:45;;;;;;;;;;;8.90;54.80;;;;;;5100080;28;19924;-75
2020/12/26 10:44:12;;;;;;;;;;;8.80;55.40;;;;;;5090585;28;19928;-74
2020/12/26 10:46:43;;;;;;;;;;;9.10;58.90;;;;;;5090611;28;19935;-76
2020/12/26 10:49:10;;;;;;;;;;;9.60;53.70;;;;;;5090230;28;19930;-77
2020/12/26 10:51:36;;;;;;;;;;;9.90;52.60;;;;;;5090166;28;19924;-76
2020/12/26 10:54:02;;;;;;;;;;;10.00;53.10;;;;;;5090501;28;19924;-76
2020/12/26 10:56:29;;;;;;;;;;;10.10;53.60;;;;;;5090205;28;19924;-76
2020/12/26 10:58:55;;;;;;;;;;;10.20;52.00;;;;;;5090639;28;19931;-76
2020/12/26 11:01:28;;;;;;;;;;;10.10;52.20;;;;;;5090498;28;19932;-75
2020/12/26 11:03:54;;;;;;;;;;;10.10;53.90;;;;;;5090337;28;19932;-76
2020/12/26 11:06:20;;;;;;;;;;;10.20;52.50;;;;;;5090544;28;19924;-76
2020/12/26 11:08:47;;;;;;;;;;;10.30;52.50;;;;;;5072342;28;19928;-76
2020/12/26 11:11:13;;;;;;;;;;;10.20;51.50;;;;;;5090102;28;19924;-76
2020/12/26 11:13:39;;;;;;;;;;;10.00;53.20;;;;;;5089458;28;19932;-76
2020/12/26 11:16:05;;;;;;;;;;;10.00;52.60;;;;;;5097567;28;19924;-76
2020/12/26 11:18:32;;;;;;;;;;;10.10;53.20;;;;;;5110540;28;19934;-76
2020/12/26 11:20:58;;;;;;;;;;;10.20;54.30;;;;;;5110153;28;20379;-76
2020/12/26 11:23:24;;;;;;;;;;;10.20;53.90;;;;;;5092478;28;20303;-76
2020/12/26 11:25:57;;;;;;;;;;;10.20;53.20;;;;;;5089484;28;19924;-76
2020/12/26 11:28:35;;;;;;;;;;;10.40;53.30;;;;;;5090123;28;20011;-76
2020/12/26 11:31:07;;;;;;;;;;;10.50;52.90;;;;;;5090145;28;19924;-76
2020/12/26 11:33:33;;;;;;;;;;;10.10;53.60;;;;;;5094887;28;19931;-76
2020/12/26 11:35:59;;;;;;;;;;;10.00;54.00;;;;;;5089785;28;19935;-77
2020/12/26 11:38:26;;;;;;;;;;;9.80;53.90;;;;;;5105665;28;20121;-76
2020/12/26 11:40:52;;;;;;;;;;;10.00;54.80;;;;;;5106662;28;19924;-77
2020/12/26 11:43:18;;;;;;;;;;;10.10;53.80;;;;;;5089932;28;19925;-77
2020/12/26 11:45:57;;;;;;;;;;;9.90;54.20;;;;;;5090338;28;19934;-76
2020/12/26 11:48:24;;;;;;;;;;;9.70;55.70;;;;;;5089567;28;19924;-76
2020/12/26 11:50:50;;;;;;;;;;;9.70;56.40;;;;;;5089461;28;19931;-76
2020/12/26 11:53:17;;;;;;;;;;;9.70;55.50;;;;;;5089876;28;20381;-76
2020/12/26 11:55:43;;;;;;;;;;;9.60;55.80;;;;;;5071694;28;19928;-75
2020/12/26 11:58:09;;;;;;;;;;;9.40;56.20;;;;;;5071928;28;19924;-74
2020/12/26 12:00:35;;;;;;;;;;;9.50;57.00;;;;;;5089669;28;20416;-74
2020/12/26 12:03:02;;;;;;;;;;;9.60;56.90;;;;;;5089815;28;19935;-74
2020/12/26 12:05:28;;;;;;;;;;;9.30;55.90;;;;;;5071536;28;19924;-74
2020/12/26 12:07:54;;;;;;;;;;;9.40;57.00;;;;;;5089679;28;20297;-74
2020/12/26 12:10:20;;;;;;;;;;;9.40;57.60;;;;;;5089663;28;20510;-74
2020/12/26 12:12:47;;;;;;;;;;;9.80;56.00;;;;;;5071771;28;20399;-77
2020/12/26 12:15:13;;;;;;;;;;;9.90;55.50;;;;;;5089607;28;19924;-74
2020/12/26 12:17:39;;;;;;;;;;;9.70;55.70;;;;;;5089939;28;19924;-75
2020/12/26 12:20:06;;;;;;;;;;;10.00;56.60;;;;;;5071546;28;20377;-75
2020/12/26 12:22:32;;;;;;;;;;;10.30;55.20;;;;;;5071314;28;19928;-75
2020/12/26 12:24:58;;;;;;;;;;;10.20;56.00;;;;;;5089434;28;20519;-74
2020/12/26 12:27:25;;;;;;;;;;;10.10;55.60;;;;;;5108592;28;19931;-74
2020/12/26 12:29:51;;;;;;;;;;;10.20;54.40;;;;;;5113334;28;19924;-75
2020/12/26 12:32:17;;;;;;;;;;;10.10;55.00;;;;;;5107181;28;19924;-74
2020/12/26 12:34:44;;;;;;;;;;;9.90;54.70;;;;;;5092845;28;19924;-75
2020/12/26 12:37:12;;;;;;;;;;;10.10;55.60;;;;;;5079982;28;19924;-75
2020/12/26 12:39:38;;;;;;;;;;;9.80;55.80;;;;;;5095094;28;20292;-74
2020/12/26 12:42:07;;;;;;;;;;;9.70;56.30;;;;;;5099205;28;20407;-77
2020/12/26 12:44:34;;;;;;;;;;;9.70;56.60;;;;;;5092973;28;19924;-73
2020/12/26 12:47:01;;;;;;;;;;;9.60;57.40;;;;;;5092577;28;19924;-74
2020/12/26 12:49:28;;;;;;;;;;;9.60;56.60;;;;;;5092332;28;19924;-75
2020/12/26 12:51:54;;;;;;;;;;;9.70;55.80;;;;;;5074212;28;19931;-74
2020/12/26 12:54:22;;;;;;;;;;;9.40;56.90;;;;;;5092454;28;19947;-74
2020/12/26 12:56:48;;;;;;;;;;;9.50;57.70;;;;;;5092659;28;19924;-74
2020/12/26 12:59:14;;;;;;;;;;;9.60;56.40;;;;;;5092345;28;19924;-74
2020/12/26 13:01:47;;;;;;;;;;;9.60;56.40;;;;;;5092441;28;20023;-74
2020/12/26 13:04:14;;;;;;;;;;;9.60;57.70;;;;;;5092630;28;19931;-74
2020/12/26 13:06:41;;;;;;;;;;;9.50;57.30;;;;;;5092385;28;19970;-74
2020/12/26 13:09:07;;;;;;;;;;;9.10;57.80;;;;;;5092434;28;19938;-73
2020/12/26 13:11:34;;;;;;;;;;;9.10;58.70;;;;;;5091918;28;19931;-74
2020/12/26 13:14:00;;;;;;;;;;;9.00;59.20;;;;;;5092019;28;19924;-74
2020/12/26 13:16:27;;;;;;;;;;;9.30;58.70;;;;;;5092121;28;20002;-74
2020/12/26 13:18:53;;;;;;;;;;;9.60;58.60;;;;;;5091985;28;19924;-74
2020/12/26 13:21:20;;;;;;;;;;;9.70;57.20;;;;;;5092216;28;19970;-74
2020/12/26 13:23:46;;;;;;;;;;;9.30;57.90;;;;;;5092147;28;19924;-74
2020/12/26 13:26:13;;;;;;;;;;;9.20;58.40;;;;;;5079373;28;20320;-74
2020/12/26 13:28:39;;;;;;;;;;;9.30;58.70;;;;;;5112217;28;19928;-75
2020/12/26 13:31:05;;;;;;;;;;;9.60;58.80;;;;;;5112095;28;20036;-74
2020/12/26 13:33:32;;;;;;;;;;;9.50;57.20;;;;;;5095248;28;19928;-74
2020/12/26 13:35:58;;;;;;;;;;;9.70;58.60;;;;;;5091820;28;20275;-74
2020/12/26 13:38:25;;;;;;;;;;;9.70;58.10;;;;;;5106837;28;20302;-74
2020/12/26 13:40:51;;;;;;;;;;;9.70;58.30;;;;;;5090344;28;19961;-74
2020/12/26 13:43:18;;;;;;;;;;;9.60;59.00;;;;;;5091651;28;20423;-74
2020/12/26 13:45:44;;;;;;;;;;;9.70;58.10;;;;;;5091526;28;19931;-74
2020/12/26 13:48:10;;;;;;;;;;;9.90;58.40;;;;;;5091487;28;19924;-75
2020/12/26 13:50:37;;;;;;;;;;;9.60;58.10;;;;;;5091726;28;20550;-75
2020/12/26 13:53:03;;;;;;;;;;;9.60;59.00;;;;;;5073206;28;19931;-75
2020/12/26 13:55:29;;;;;;;;;;;9.70;59.40;;;;;;5091071;28;19997;-74
2020/12/26 13:58:04;;;;;;;;;;;9.50;58.80;;;;;;5091626;28;19924;-75
2020/12/26 14:00:30;;;;;;;;;;;9.40;58.70;;;;;;5091280;28;19924;-75
2020/12/26 14:02:56;;;;;;;;;;;9.30;59.30;;;;;;5091676;28;20075;-74
2020/12/26 14:05:23;;;;;;;;;;;9.30;60.30;;;;;;5091024;28;20404;-75
2020/12/26 14:07:49;;;;;;;;;;;9.30;60.00;;;;;;5073291;28;19932;-74
2020/12/26 14:10:15;;;;;;;;;;;9.40;59.80;;;;;;5090950;28;20368;-74
2020/12/26 14:12:41;;;;;;;;;;;9.40;59.20;;;;;;5090938;28;19927;-74
2020/12/26 14:15:08;;;;;;;;;;;9.20;59.80;;;;;;5072863;28;19924;-74
2020/12/26 14:17:34;;;;;;;;;;;9.50;60.60;;;;;;5110698;28;20330;-74
2020/12/26 14:20:03;;;;;;;;;;;9.60;59.30;;;;;;5111237;28;19931;-74
2020/12/26 14:22:29;;;;;;;;;;;9.30;59.70;;;;;;5111022;28;20174;-74
2020/12/26 14:24:57;;;;;;;;;;;9.10;60.40;;;;;;5111226;28;19924;-74
2020/12/26 14:27:24;;;;;;;;;;;9.00;61.50;;;;;;5095623;28;20204;-74
2020/12/26 14:29:51;;;;;;;;;;;9.10;61.30;;;;;;5090634;28;20090;-74
2020/12/26 14:32:17;;;;;;;;;;;9.10;61.70;;;;;;5095723;28;19931;-74